createdAt,value
2016-09-02T00:00:40.553Z,22.1
2016-09-02T00:01:40.529Z,22.02
2016-09-02T00:02:40.534Z,21.95
2016-09-02T00:03:56.045Z,21.79
2016-09-02T00:04:40.437Z,21.88
2016-09-02T00:05:41.214Z,21.63
2016-09-02T00:06:41.422Z,21.32
2016-09-02T00:07:41.491Z,21.29
2016-09-02T00:08:40.322Z,21.27
2016-09-02T00:09:41.094Z,21.3
2016-09-02T00:10:41.085Z,21.23
2016-09-02T00:11:40.256Z,21.24
2016-09-02T00:12:40.249Z,21.3
2016-09-02T00:13:40.224Z,21.14
2016-09-02T00:14:40.202Z,21.3
2016-09-02T00:15:40.188Z,21.29
2016-09-02T00:16:40.152Z,21.32
2016-09-02T00:17:40.234Z,21.29
2016-09-02T00:18:54.766Z,21.17
2016-09-02T00:19:40.113Z,21.14
2016-09-02T00:20:55.084Z,21.01
2016-09-02T00:21:40.020Z,21.09
2016-09-02T00:22:54.672Z,21.17
2016-09-02T00:23:40.035Z,21.05
2016-09-02T00:24:39.967Z,21.02
2016-09-02T00:25:39.940Z,20.93
2016-09-02T00:26:40.673Z,20.87
2016-09-02T00:27:39.867Z,20.83
2016-09-02T00:28:39.849Z,20.83
2016-09-02T00:29:39.825Z,20.96
2016-09-02T00:30:40.730Z,21.09
2016-09-02T00:31:39.841Z,21.05
2016-09-02T00:32:39.760Z,21.02
2016-09-02T00:33:39.714Z,21.13
2016-09-02T00:34:40.508Z,20.96
2016-09-02T00:35:55.222Z,20.95
2016-09-02T00:36:39.641Z,20.91
2016-09-02T00:37:39.619Z,20.96
2016-09-02T00:38:39.610Z,20.96
2016-09-02T00:39:39.614Z,20.86
2016-09-02T00:40:39.559Z,20.86
2016-09-02T00:41:40.309Z,20.84
2016-09-02T00:42:39.691Z,21.11
2016-09-02T00:43:39.474Z,21.09
2016-09-02T00:44:55.263Z,21.04
2016-09-02T00:45:39.474Z,20.89
2016-09-02T00:46:44.429Z,20.83
2016-09-02T00:47:39.376Z,20.76
2016-09-02T00:49:39.315Z,20.69
2016-09-02T00:50:39.358Z,20.69
2016-09-02T00:51:39.629Z,20.83
2016-09-02T00:52:40.029Z,20.86
2016-09-02T00:53:39.242Z,20.91
2016-09-02T00:54:39.193Z,20.96
2016-09-02T00:55:39.179Z,20.91
2016-09-02T00:56:40.696Z,20.95
2016-09-02T00:57:39.140Z,20.79
2016-09-02T00:58:39.127Z,20.89
2016-09-02T00:59:39.889Z,20.89
2016-09-02T01:00:39.839Z,20.83
2016-09-02T01:01:39.027Z,20.93
2016-09-02T01:02:39.084Z,20.95
2016-09-02T01:03:39.763Z,20.99
2016-09-02T01:04:39.790Z,20.9
2016-09-02T01:05:39.010Z,20.96
2016-09-02T01:07:38.861Z,20.84
2016-09-02T01:08:38.836Z,20.83
2016-09-02T01:09:39.740Z,20.76
2016-09-02T01:10:39.680Z,20.61
2016-09-02T01:11:38.757Z,20.62
2016-09-02T01:12:38.755Z,20.71
2016-09-02T01:13:40.389Z,20.71
2016-09-02T01:14:39.480Z,20.84
2016-09-02T01:15:38.677Z,20.87
2016-09-02T01:16:39.451Z,20.72
2016-09-02T01:17:38.681Z,20.8
2016-09-02T01:18:38.625Z,20.86
2016-09-02T01:19:39.361Z,20.9
2016-09-02T01:20:38.563Z,20.84
2016-09-02T01:21:39.319Z,20.72
2016-09-02T01:22:53.166Z,20.66
2016-09-02T01:23:38.460Z,20.83
2016-09-02T01:24:38.498Z,20.83
2016-09-02T01:25:39.263Z,20.74
2016-09-02T01:26:39.181Z,20.95
2016-09-02T01:27:39.268Z,20.93
2016-09-02T01:28:38.368Z,20.96
2016-09-02T01:29:38.329Z,20.96
2016-09-02T01:30:39.104Z,20.74
2016-09-02T01:31:39.862Z,20.74
2016-09-02T01:32:38.253Z,20.69
2016-09-02T01:34:39.365Z,20.56
2016-09-02T01:35:52.859Z,20.43
2016-09-02T01:36:38.195Z,20.43
2016-09-02T01:37:43.253Z,20.25
2016-09-02T01:38:38.129Z,20.27
2016-09-02T01:39:38.066Z,20.42
2016-09-02T01:40:38.848Z,20.28
2016-09-02T01:41:38.791Z,20.31
2016-09-02T01:42:38.785Z,20.3
2016-09-02T01:43:37.972Z,20.41
2016-09-02T01:45:37.942Z,20.84
2016-09-02T01:46:37.898Z,20.84
2016-09-02T01:47:37.896Z,20.91
2016-09-02T01:48:38.977Z,20.98
2016-09-02T01:49:39.472Z,20.86
2016-09-02T01:50:38.601Z,20.99
2016-09-02T01:51:39.256Z,20.98
2016-09-02T01:52:37.766Z,20.71
2016-09-02T01:53:38.620Z,20.54
2016-09-02T01:54:38.613Z,20.43
2016-09-02T01:55:39.586Z,20.35
2016-09-02T01:56:39.271Z,20.41
2016-09-02T01:57:37.652Z,20.47
2016-09-02T01:58:37.599Z,20.38
2016-09-02T01:59:37.692Z,20.43
2016-09-02T02:00:37.579Z,20.39
2016-09-02T02:01:37.506Z,20.34
2016-09-02T02:02:37.513Z,20.43
2016-09-02T02:03:37.456Z,20.43
2016-09-02T02:04:37.429Z,20.31
2016-09-02T02:05:52.072Z,20.27
2016-09-02T02:06:37.378Z,20.3
2016-09-02T02:07:37.353Z,20.3
2016-09-02T02:08:38.107Z,20.15
2016-09-02T02:09:38.217Z,20.03
2016-09-02T02:10:38.691Z,20.05
2016-09-02T02:11:38.130Z,20.09
2016-09-02T02:12:38.142Z,20.12
2016-09-02T02:13:51.880Z,19.93
2016-09-02T02:14:52.213Z,20
2016-09-02T02:15:38.366Z,20
2016-09-02T02:16:37.962Z,20.05
2016-09-02T02:17:37.094Z,19.97
2016-09-02T02:18:37.296Z,19.88
2016-09-02T02:19:37.060Z,20.06
2016-09-02T02:20:37.061Z,20.39
2016-09-02T02:21:37.817Z,20.84
2016-09-02T02:22:38.545Z,21.01
2016-09-02T02:23:36.956Z,20.77
2016-09-02T02:24:36.935Z,20.71
2016-09-02T02:25:37.706Z,20.59
2016-09-02T02:26:36.879Z,20.35
2016-09-02T02:27:37.619Z,20.24
2016-09-02T02:28:37.621Z,20.12
2016-09-02T02:29:37.801Z,20.12
2016-09-02T02:30:37.667Z,20.12
2016-09-02T02:31:36.867Z,20.08
2016-09-02T02:32:36.727Z,20.1
2016-09-02T02:33:36.697Z,20.09
2016-09-02T02:34:36.689Z,20.08
2016-09-02T02:35:36.646Z,19.97
2016-09-02T02:36:36.645Z,19.98
2016-09-02T02:37:38.570Z,19.91
2016-09-02T02:38:36.570Z,19.93
2016-09-02T02:39:36.641Z,19.91
2016-09-02T02:40:36.523Z,19.94
2016-09-02T02:41:36.479Z,19.97
2016-09-02T02:42:37.246Z,20.02
2016-09-02T02:43:52.800Z,20.15
2016-09-02T02:44:36.799Z,20.39
2016-09-02T02:45:51.058Z,20.43
2016-09-02T02:46:37.150Z,20.33
2016-09-02T02:47:36.355Z,20.34
2016-09-02T02:48:36.363Z,20.27
2016-09-02T02:49:36.293Z,20.25
2016-09-02T02:50:36.274Z,20.25
2016-09-02T02:51:37.052Z,20.56
2016-09-02T02:52:36.218Z,20.5
2016-09-02T02:53:36.360Z,20.24
2016-09-02T02:54:36.196Z,20.21
2016-09-02T02:55:37.001Z,20.12
2016-09-02T02:56:37.071Z,20.05
2016-09-02T02:57:36.419Z,20
2016-09-02T02:58:36.848Z,20.03
2016-09-02T02:59:36.097Z,20.21
2016-09-02T03:00:36.027Z,20.13
2016-09-02T03:01:36.805Z,20.2
2016-09-02T03:02:35.981Z,20.15
2016-09-02T03:04:05.292Z,20.03
2016-09-02T03:04:50.591Z,20.05
2016-09-02T03:06:35.858Z,19.91
2016-09-02T03:07:50.531Z,19.79
2016-09-02T03:08:35.824Z,19.83
2016-09-02T03:09:36.669Z,20.03
2016-09-02T03:10:35.817Z,19.98
2016-09-02T03:11:35.740Z,20.15
2016-09-02T03:12:35.800Z,20.16
2016-09-02T03:13:36.470Z,20.05
2016-09-02T03:14:35.641Z,19.97
2016-09-02T03:15:36.925Z,19.88
2016-09-02T03:16:35.619Z,19.9
2016-09-02T03:17:36.395Z,19.91
2016-09-02T03:18:35.569Z,19.9
2016-09-02T03:19:36.353Z,19.88
2016-09-02T03:20:36.289Z,19.87
2016-09-02T03:21:37.141Z,19.86
2016-09-02T03:22:36.649Z,19.88
2016-09-02T03:23:50.105Z,19.86
2016-09-02T03:24:36.223Z,19.88
2016-09-02T03:25:36.164Z,19.88
2016-09-02T03:26:35.362Z,19.83
2016-09-02T03:27:35.356Z,19.76
2016-09-02T03:28:35.303Z,19.63
2016-09-02T03:29:36.198Z,19.69
2016-09-02T03:30:36.072Z,19.65
2016-09-02T03:31:36.940Z,19.65
2016-09-02T03:32:35.205Z,19.7
2016-09-02T03:33:35.188Z,19.8
2016-09-02T03:34:36.087Z,19.79
2016-09-02T03:35:35.863Z,20.12
2016-09-02T03:36:35.872Z,20.18
2016-09-02T03:37:35.061Z,20.15
2016-09-02T03:38:35.835Z,20.09
2016-09-02T03:39:35.022Z,20.06
2016-09-02T03:40:35.017Z,20.03
2016-09-02T03:41:35.746Z,20.02
2016-09-02T03:42:34.966Z,19.93
2016-09-02T03:43:34.922Z,19.76
2016-09-02T03:44:35.677Z,19.83
2016-09-02T03:45:35.670Z,19.95
2016-09-02T03:46:34.837Z,19.88
2016-09-02T03:47:35.729Z,20.28
2016-09-02T03:49:35.693Z,20.18
2016-09-02T03:50:49.849Z,20
2016-09-02T03:51:34.865Z,19.93
2016-09-02T03:52:50.156Z,19.9
2016-09-02T03:53:34.660Z,19.9
2016-09-02T03:54:35.428Z,19.9
2016-09-02T03:55:35.408Z,19.83
2016-09-02T03:56:34.584Z,19.84
2016-09-02T03:57:35.344Z,19.88
2016-09-02T03:58:35.902Z,19.75
2016-09-02T04:00:34.604Z,19.68
2016-09-02T04:02:35.223Z,19.73
2016-09-02T04:03:35.181Z,19.76
2016-09-02T04:04:34.403Z,19.68
2016-09-02T04:05:34.379Z,19.55
2016-09-02T04:06:34.329Z,19.53
2016-09-02T04:07:35.076Z,19.57
2016-09-02T04:08:34.285Z,19.58
2016-09-02T04:09:34.266Z,19.51
2016-09-02T04:10:34.228Z,19.5
2016-09-02T04:11:34.191Z,19.54
2016-09-02T04:12:34.182Z,19.47
2016-09-02T04:13:35.246Z,19.57
2016-09-02T04:14:35.043Z,19.51
2016-09-02T04:15:35.723Z,19.6
2016-09-02T04:16:40.333Z,19.57
2016-09-02T04:17:34.115Z,19.65
2016-09-02T04:18:34.065Z,19.75
2016-09-02T04:19:35.262Z,19.68
2016-09-02T04:20:34.050Z,19.55
2016-09-02T04:21:33.957Z,19.65
2016-09-02T04:22:35.588Z,19.91
2016-09-02T04:23:33.909Z,20.06
2016-09-02T04:24:33.886Z,19.84
2016-09-02T04:26:34.588Z,19.79
2016-09-02T04:27:48.509Z,19.78
2016-09-02T04:28:34.538Z,19.68
2016-09-02T04:29:33.751Z,19.7
2016-09-02T04:30:34.515Z,19.65
2016-09-02T04:31:34.466Z,19.61
2016-09-02T04:32:34.486Z,19.7
2016-09-02T04:33:33.637Z,19.75
2016-09-02T04:34:48.300Z,19.73
2016-09-02T04:35:34.448Z,19.84
2016-09-02T04:36:34.453Z,19.8
2016-09-02T04:37:33.539Z,19.73
2016-09-02T04:38:34.312Z,19.5
2016-09-02T04:39:33.499Z,19.53
2016-09-02T04:40:33.522Z,19.47
2016-09-02T04:41:49.233Z,19.35
2016-09-02T04:42:33.478Z,19.28
2016-09-02T04:43:33.449Z,19.28
2016-09-02T04:44:33.430Z,19.23
2016-09-02T04:45:34.521Z,19.24
2016-09-02T04:46:33.658Z,19.35
2016-09-02T04:47:33.273Z,19.36
2016-09-02T04:48:33.242Z,19.48
2016-09-02T04:49:33.224Z,19.35
2016-09-02T04:50:34.002Z,19.38
2016-09-02T04:51:33.248Z,19.4
2016-09-02T04:52:33.263Z,19.51
2016-09-02T04:53:33.130Z,19.47
2016-09-02T04:54:33.113Z,19.4
2016-09-02T04:55:33.072Z,19.51
2016-09-02T04:56:33.048Z,19.48
2016-09-02T04:57:33.017Z,19.42
2016-09-02T04:58:33.001Z,19.53
2016-09-02T04:59:32.964Z,19.6
2016-09-02T05:00:32.955Z,19.76
2016-09-02T05:01:32.914Z,19.75
2016-09-02T05:02:47.907Z,19.66
2016-09-02T05:03:33.707Z,19.55
2016-09-02T05:04:32.929Z,19.65
2016-09-02T05:05:34.034Z,19.55
2016-09-02T05:06:32.878Z,19.47
2016-09-02T05:07:32.759Z,19.48
2016-09-02T05:08:32.744Z,19.47
2016-09-02T05:10:32.693Z,19.47
2016-09-02T05:11:33.483Z,19.58
2016-09-02T05:12:32.622Z,19.58
2016-09-02T05:13:32.614Z,19.61
2016-09-02T05:14:33.445Z,19.61
2016-09-02T05:16:47.970Z,19.65
2016-09-02T05:17:32.495Z,19.66
2016-09-02T05:19:33.239Z,19.42
2016-09-02T05:20:33.332Z,19.61
2016-09-02T05:21:32.458Z,19.57
2016-09-02T05:23:01.722Z,19.46
2016-09-02T05:23:33.134Z,19.5
2016-09-02T05:24:33.156Z,19.43
2016-09-02T05:25:33.121Z,19.48
2016-09-02T05:26:32.262Z,19.46
2016-09-02T05:27:33.045Z,19.55
2016-09-02T05:28:32.245Z,19.42
2016-09-02T05:29:32.202Z,19.47
2016-09-02T05:30:32.177Z,19.61
2016-09-02T05:31:46.821Z,19.69
2016-09-02T05:32:33.282Z,19.58
2016-09-02T05:33:32.118Z,19.66
2016-09-02T05:34:32.059Z,19.51
2016-09-02T05:35:34.931Z,19.76
2016-09-02T05:36:32.070Z,19.84
2016-09-02T05:37:32.136Z,19.7
2016-09-02T05:38:33.060Z,19.75
2016-09-02T05:39:31.943Z,19.68
2016-09-02T05:41:31.869Z,19.78
2016-09-02T05:42:31.857Z,19.8
2016-09-02T05:43:31.882Z,19.8
2016-09-02T05:44:31.818Z,19.76
2016-09-02T05:45:32.962Z,19.91
2016-09-02T05:46:32.771Z,19.9
2016-09-02T05:47:31.755Z,20.06
2016-09-02T05:48:32.520Z,19.98
2016-09-02T05:49:31.684Z,19.79
2016-09-02T05:50:46.735Z,19.91
2016-09-02T05:51:31.755Z,20.06
2016-09-02T05:52:31.701Z,19.93
2016-09-02T05:53:31.586Z,19.97
2016-09-02T05:54:31.541Z,20.02
2016-09-02T05:55:32.142Z,20.15
2016-09-02T05:56:46.557Z,20.08
2016-09-02T05:57:31.808Z,20.24
2016-09-02T05:58:31.556Z,20.05
2016-09-02T05:59:32.273Z,19.93
2016-09-02T06:00:31.628Z,19.9
2016-09-02T06:01:31.386Z,19.87
2016-09-02T06:02:32.114Z,19.94
2016-09-02T06:03:31.316Z,19.9
2016-09-02T06:04:32.079Z,19.86
2016-09-02T06:05:31.482Z,19.93
2016-09-02T06:06:31.341Z,20.13
2016-09-02T06:07:32.176Z,20.28
2016-09-02T06:08:31.260Z,20.27
2016-09-02T06:09:31.163Z,20.43
2016-09-02T06:10:31.158Z,20.54
2016-09-02T06:11:31.150Z,20.56
2016-09-02T06:12:31.117Z,20.74
2016-09-02T06:14:31.030Z,20.69
2016-09-02T06:15:46.577Z,20.91
2016-09-02T06:16:31.803Z,20.91
2016-09-02T06:17:31.756Z,21.01
2016-09-02T06:18:31.718Z,20.93
2016-09-02T06:19:30.912Z,20.87
2016-09-02T06:20:32.084Z,21.01
2016-09-02T06:21:31.651Z,20.99
2016-09-02T06:23:31.586Z,21.08
2016-09-02T06:24:31.568Z,21.09
2016-09-02T06:25:30.843Z,21.38
2016-09-02T06:26:31.524Z,21.45
2016-09-02T06:28:32.369Z,21.53
2016-09-02T06:30:31.413Z,21.6
2016-09-02T06:31:35.454Z,21.56
2016-09-02T06:32:30.664Z,21.6
2016-09-02T06:33:30.579Z,21.72
2016-09-02T06:34:30.602Z,21.91
2016-09-02T06:35:45.211Z,22.01
2016-09-02T06:36:30.568Z,22.02
2016-09-02T06:37:30.491Z,22.16
2016-09-02T06:38:30.450Z,22.22
2016-09-02T06:39:30.423Z,22.06
2016-09-02T06:40:30.724Z,21.94
2016-09-02T06:41:31.136Z,22.04
2016-09-02T06:42:30.329Z,22.19
2016-09-02T06:43:30.312Z,22.13
2016-09-02T06:44:30.294Z,21.85
2016-09-02T06:46:31.022Z,21.91
2016-09-02T06:47:31.003Z,22.09
2016-09-02T06:48:30.178Z,22.2
2016-09-02T06:49:30.164Z,22.27
2016-09-02T06:50:30.121Z,22.41
2016-09-02T06:51:30.412Z,22.37
2016-09-02T06:52:44.886Z,22.32
2016-09-02T06:53:30.950Z,22.49
2016-09-02T06:54:30.063Z,22.35
2016-09-02T06:55:30.504Z,22.17
2016-09-02T06:56:30.010Z,22.34
2016-09-02T06:57:30.037Z,22.23
2016-09-02T06:58:30.003Z,22.31
2016-09-02T06:59:29.930Z,22.2
2016-09-02T07:00:30.874Z,22.41
2016-09-02T07:01:29.919Z,22.29
2016-09-02T07:02:29.909Z,22.29
2016-09-02T07:03:29.821Z,22.37
2016-09-02T07:04:30.562Z,22.39
2016-09-02T07:05:30.647Z,22.53
2016-09-02T07:06:29.731Z,22.75
2016-09-02T07:07:30.606Z,22.89
2016-09-02T07:08:30.504Z,22.9
2016-09-02T07:09:30.455Z,23.07
2016-09-02T07:10:30.770Z,23.04
2016-09-02T07:11:30.466Z,23.12
2016-09-02T07:12:31.216Z,23.11
2016-09-02T07:13:29.751Z,23.09
2016-09-02T07:14:30.309Z,23.29
2016-09-02T07:15:30.467Z,23.14
2016-09-02T07:16:44.255Z,23.07
2016-09-02T07:17:30.230Z,23.05
2016-09-02T07:18:29.449Z,23.09
2016-09-02T07:19:29.506Z,23.15
2016-09-02T07:20:29.397Z,23.09
2016-09-02T07:21:30.181Z,22.89
2016-09-02T07:22:31.103Z,23.15
2016-09-02T07:23:29.314Z,23.15
2016-09-02T07:24:30.074Z,23.26
2016-09-02T07:25:29.326Z,23.42
2016-09-02T07:26:29.241Z,23.4
2016-09-02T07:27:44.719Z,23.43
2016-09-02T07:28:43.993Z,23.46
2016-09-02T07:29:30.164Z,23.57
2016-09-02T07:30:29.194Z,23.61
2016-09-02T07:31:43.791Z,23.75
2016-09-02T07:32:30.227Z,23.7
2016-09-02T07:33:29.283Z,23.64
2016-09-02T07:34:29.148Z,23.72
2016-09-02T07:35:30.449Z,23.75
2016-09-02T07:36:29.775Z,23.76
2016-09-02T07:37:30.599Z,23.62
2016-09-02T07:38:29.930Z,23.75
2016-09-02T07:39:28.940Z,23.75
2016-09-02T07:40:28.962Z,23.75
2016-09-02T07:41:58.214Z,23.68
2016-09-02T07:42:28.860Z,23.75
2016-09-02T07:43:28.827Z,23.68
2016-09-02T07:44:43.520Z,23.47
2016-09-02T07:46:30.537Z,23.79
2016-09-02T07:47:28.741Z,23.85
2016-09-02T07:48:29.616Z,23.9
2016-09-02T07:49:28.961Z,23.89
2016-09-02T07:50:30.397Z,23.87
2016-09-02T07:51:29.483Z,23.95
2016-09-02T07:52:28.700Z,23.89
2016-09-02T07:53:28.637Z,23.89
2016-09-02T07:54:29.447Z,23.65
2016-09-02T07:55:29.316Z,23.82
2016-09-02T07:56:29.282Z,23.77
2016-09-02T07:57:28.491Z,23.82
2016-09-02T07:58:29.265Z,23.65
2016-09-02T07:59:28.434Z,23.67
2016-09-02T08:00:28.417Z,23.71
2016-09-02T08:01:29.693Z,23.72
2016-09-02T08:03:29.276Z,23.72
2016-09-02T08:04:28.653Z,23.82
2016-09-02T08:05:30.264Z,24
2016-09-02T08:06:29.939Z,23.89
2016-09-02T08:07:29.103Z,23.95
2016-09-02T08:08:43.249Z,24.05
2016-09-02T08:09:29.113Z,23.87
2016-09-02T08:10:28.941Z,24.02
2016-09-02T08:11:28.164Z,24.14
2016-09-02T08:13:42.751Z,24.17
2016-09-02T08:15:29.237Z,24.04
2016-09-02T08:17:28.967Z,23.98
2016-09-02T08:19:43.407Z,23.87
2016-09-02T08:20:28.704Z,23.94
2016-09-02T08:21:27.919Z,23.92
2016-09-02T08:22:29.450Z,23.92
2016-09-02T08:23:28.687Z,23.87
2016-09-02T08:24:27.838Z,23.8
2016-09-02T08:25:28.967Z,23.72
2016-09-02T08:26:29.367Z,23.87
2016-09-02T08:27:27.728Z,23.95
2016-09-02T08:28:28.598Z,24.05
2016-09-02T08:29:29.542Z,24.12
2016-09-02T08:30:27.732Z,24.16
2016-09-02T08:31:28.602Z,24.24
2016-09-02T08:32:27.789Z,24.29
2016-09-02T08:33:28.389Z,24.31
2016-09-02T08:34:28.725Z,24.56
2016-09-02T08:35:29.427Z,24.6
2016-09-02T08:36:42.972Z,24.5
2016-09-02T08:37:27.501Z,24.59
2016-09-02T08:38:27.542Z,24.73
2016-09-02T08:39:28.783Z,24.64
2016-09-02T08:40:27.589Z,24.63
2016-09-02T08:41:28.234Z,24.45
2016-09-02T08:42:28.243Z,24.6
2016-09-02T08:43:28.160Z,24.76
2016-09-02T08:44:27.484Z,24.8
2016-09-02T08:45:27.327Z,24.68
2016-09-02T08:46:27.311Z,24.88
2016-09-02T08:47:27.274Z,24.94
2016-09-02T08:48:27.275Z,24.92
2016-09-02T08:49:42.728Z,25.06
2016-09-02T08:50:27.721Z,25.05
2016-09-02T08:51:27.229Z,24.92
2016-09-02T08:52:28.690Z,25.13
2016-09-02T08:53:41.799Z,25
2016-09-02T08:54:27.134Z,24.97
2016-09-02T08:55:27.974Z,25.13
2016-09-02T08:56:28.017Z,25.01
2016-09-02T08:57:27.024Z,24.92
2016-09-02T08:58:41.807Z,24.77
2016-09-02T08:59:41.723Z,24.83
2016-09-02T09:00:27.731Z,24.67
2016-09-02T09:01:28.634Z,24.69
2016-09-02T09:02:27.685Z,24.54
2016-09-02T09:03:41.603Z,24.47
2016-09-02T09:04:28.835Z,24.38
2016-09-02T09:05:27.217Z,24.35
2016-09-02T09:06:28.776Z,24.44
2016-09-02T09:07:27.562Z,24.41
2016-09-02T09:08:27.709Z,24.39
2016-09-02T09:09:27.612Z,24.5
2016-09-02T09:10:41.366Z,24.39
2016-09-02T09:11:27.582Z,24.5
2016-09-02T09:12:28.548Z,24.39
2016-09-02T09:13:27.440Z,24.53
2016-09-02T09:14:42.449Z,24.49
2016-09-02T09:15:27.890Z,24.47
2016-09-02T09:16:26.786Z,24.52
2016-09-02T09:17:26.554Z,24.53
2016-09-02T09:18:28.203Z,24.73
2016-09-02T09:19:27.357Z,24.85
2016-09-02T09:20:28.115Z,24.87
2016-09-02T09:21:28.154Z,25
2016-09-02T09:22:26.647Z,25.17
2016-09-02T09:23:26.405Z,25.35
2016-09-02T09:24:26.509Z,25.27
2016-09-02T09:25:26.865Z,25.31
2016-09-02T09:26:41.545Z,25.32
2016-09-02T09:27:27.078Z,25.32
2016-09-02T09:28:26.422Z,25.22
2016-09-02T09:29:26.410Z,25.19
2016-09-02T09:30:27.206Z,25.22
2016-09-02T09:31:27.045Z,25.19
2016-09-02T09:32:43.606Z,25.24
2016-09-02T09:33:27.752Z,25.16
2016-09-02T09:34:26.148Z,25.28
2016-09-02T09:35:26.923Z,25.27
2016-09-02T09:36:27.053Z,25.13
2016-09-02T09:37:26.894Z,25.12
2016-09-02T09:38:26.033Z,25.13
2016-09-02T09:39:26.022Z,24.97
2016-09-02T09:40:27.006Z,25.1
2016-09-02T09:41:40.654Z,25.3
2016-09-02T09:42:25.958Z,25.31
2016-09-02T09:43:27.745Z,25.32
2016-09-02T09:44:25.955Z,25.44
2016-09-02T09:45:40.565Z,25.52
2016-09-02T09:46:25.886Z,25.52
2016-09-02T09:47:25.813Z,25.62
2016-09-02T09:48:26.746Z,25.65
2016-09-02T09:49:26.134Z,25.64
2016-09-02T09:50:27.681Z,25.61
2016-09-02T09:51:25.875Z,25.71
2016-09-02T09:52:25.726Z,25.72
2016-09-02T09:53:26.487Z,25.74
2016-09-02T09:54:27.311Z,25.94
2016-09-02T09:55:26.142Z,25.83
2016-09-02T09:56:41.094Z,25.72
2016-09-02T09:57:27.178Z,25.72
2016-09-02T09:58:26.591Z,25.75
2016-09-02T09:59:40.225Z,25.69
2016-09-02T10:00:27.227Z,25.69
2016-09-02T10:01:26.791Z,25.67
2016-09-02T10:04:41.998Z,25.77
2016-09-02T10:05:41.019Z,25.77
2016-09-02T10:06:27.697Z,25.84
2016-09-02T10:09:27.730Z,25.93
2016-09-02T10:12:03.254Z,25.93
2016-09-02T10:12:50.247Z,25.89
2016-09-02T10:14:03.946Z,25.91
2016-09-02T10:14:49.312Z,25.91
2016-09-02T10:15:48.363Z,26.02
2016-09-02T10:16:50.222Z,26.02
2016-09-02T10:17:48.352Z,26.12
2016-09-02T10:19:49.066Z,26.15
2016-09-02T10:20:48.223Z,26.01
2016-09-02T10:22:48.228Z,26.02
2016-09-02T10:23:48.297Z,26.01
2016-09-02T10:24:48.924Z,26.04
2016-09-02T10:25:49.104Z,25.99
2016-09-02T10:27:03.986Z,26.05
2016-09-02T10:27:48.845Z,25.9
2016-09-02T10:28:48.077Z,25.98
2016-09-02T10:29:48.831Z,25.86
2016-09-02T10:31:02.915Z,25.9
2016-09-02T10:31:49.683Z,26.04
2016-09-02T10:32:48.719Z,25.99
2016-09-02T10:33:49.493Z,25.79
2016-09-02T10:34:48.980Z,25.83
2016-09-02T10:35:48.662Z,25.65
2016-09-02T10:36:48.577Z,25.8
2016-09-02T10:38:02.638Z,25.74
2016-09-02T10:38:48.662Z,25.74
2016-09-02T10:39:48.829Z,25.75
2016-09-02T10:41:48.540Z,26.04
2016-09-02T10:42:49.810Z,25.89
2016-09-02T10:43:47.665Z,25.93
2016-09-02T10:44:48.494Z,25.89
2016-09-02T10:45:48.521Z,26.05
2016-09-02T10:46:47.607Z,25.91
2016-09-02T10:48:47.715Z,26.01
2016-09-02T10:49:47.569Z,26.11
2016-09-02T10:50:48.728Z,26.21
2016-09-02T10:51:47.515Z,26.28
2016-09-02T10:53:48.609Z,26.15
2016-09-02T10:55:02.085Z,26.28
2016-09-02T10:55:48.359Z,26.27
2016-09-02T10:57:02.376Z,26.21
2016-09-02T10:57:47.353Z,26.31
2016-09-02T10:58:47.342Z,26.2
2016-09-02T10:59:47.662Z,25.99
2016-09-02T11:00:48.303Z,25.99
2016-09-02T11:01:48.185Z,26.11
2016-09-02T11:02:48.261Z,26.12
2016-09-02T11:03:48.084Z,26.02
2016-09-02T11:04:47.192Z,25.98
2016-09-02T11:05:48.473Z,26.05
2016-09-02T11:06:48.024Z,26.06
2016-09-02T11:07:47.977Z,26.21
2016-09-02T11:09:02.222Z,26.25
2016-09-02T11:11:02.536Z,26.52
2016-09-02T11:12:47.127Z,26.35
2016-09-02T11:14:01.898Z,26.39
2016-09-02T11:14:48.892Z,26.36
2016-09-02T11:16:01.594Z,26.37
2016-09-02T11:17:01.570Z,26.62
2016-09-02T11:17:46.985Z,26.32
2016-09-02T11:18:48.445Z,26.52
2016-09-02T11:19:47.703Z,26.57
2016-09-02T11:21:48.371Z,26.4
2016-09-02T11:23:01.472Z,26.4
2016-09-02T11:23:48.692Z,26.58
2016-09-02T11:24:48.850Z,26.52
2016-09-02T11:25:48.336Z,26.64
2016-09-02T11:26:47.526Z,26.59
2016-09-02T11:27:47.617Z,26.77
2016-09-02T11:28:48.474Z,26.69
2016-09-02T11:30:47.880Z,26.81
2016-09-02T11:31:46.603Z,26.96
2016-09-02T11:32:48.522Z,26.98
2016-09-02T11:33:46.654Z,26.91
2016-09-02T11:34:47.041Z,26.83
2016-09-02T11:35:46.547Z,26.96
2016-09-02T11:36:46.430Z,26.96
2016-09-02T11:37:47.193Z,26.99
2016-09-02T11:38:46.428Z,26.81
2016-09-02T11:39:47.157Z,26.98
2016-09-02T11:40:48.493Z,26.98
2016-09-02T11:41:47.197Z,26.94
2016-09-02T11:42:47.527Z,27.02
2016-09-02T11:43:47.079Z,27.05
2016-09-02T11:44:47.205Z,27.05
2016-09-02T11:45:47.717Z,27.11
2016-09-02T11:46:46.195Z,26.96
2016-09-02T11:49:01.886Z,26.86
2016-09-02T11:49:46.915Z,26.92
2016-09-02T11:50:47.261Z,26.96
2016-09-02T11:51:46.449Z,27.05
2016-09-02T11:53:46.062Z,27.06
2016-09-02T11:54:46.932Z,27.17
2016-09-02T11:55:46.662Z,27.13
2016-09-02T11:56:48.062Z,27.26
2016-09-02T11:57:47.494Z,27.28
2016-09-02T11:58:45.974Z,27.39
2016-09-02T12:00:00.575Z,27.48
2016-09-02T12:00:46.794Z,27.73
2016-09-02T12:02:01.377Z,27.95
2016-09-02T12:02:48.055Z,28.28
2016-09-02T12:03:45.830Z,28.91
2016-09-02T12:04:45.987Z,28.91
2016-09-02T12:06:15.288Z,29.11
2016-09-02T12:06:46.089Z,29
2016-09-02T12:08:01.645Z,29
2016-09-02T12:08:47.467Z,28.73
2016-09-02T12:09:47.251Z,28.73
2016-09-02T12:10:46.776Z,28.72
2016-09-02T12:12:47.188Z,29.01
2016-09-02T12:13:52.279Z,29.34
2016-09-02T12:14:46.685Z,29.62
2016-09-02T12:15:47.300Z,30.09
2016-09-02T12:16:46.425Z,30.19
2016-09-02T12:17:47.188Z,29.77
2016-09-02T12:18:48.414Z,29.45
2016-09-02T12:19:46.857Z,29.56
2016-09-02T12:21:46.034Z,29.16
2016-09-02T12:23:00.314Z,29.07
2016-09-02T12:23:47.046Z,29.08
2016-09-02T12:24:45.730Z,29.03
2016-09-02T12:25:46.114Z,29.06
2016-09-02T12:26:46.354Z,28.93
2016-09-02T12:27:46.432Z,28.84
2016-09-02T12:28:46.309Z,28.48
2016-09-02T12:32:00.452Z,28.56
2016-09-02T12:32:45.181Z,28.5
2016-09-02T12:33:46.227Z,28.62
2016-09-02T12:34:46.720Z,28.66
2016-09-02T12:35:49.184Z,28.75
2016-09-02T12:36:46.166Z,28.69
2016-09-02T12:37:46.685Z,28.65
2016-09-02T12:38:46.187Z,28.6
2016-09-02T12:39:59.721Z,28.51
2016-09-02T12:41:45.050Z,28.41
2016-09-02T12:42:59.813Z,28.54
2016-09-02T12:43:46.027Z,28.43
2016-09-02T12:44:46.428Z,28.46
2016-09-02T12:45:45.980Z,28.66
2016-09-02T12:46:46.493Z,28.6
2016-09-02T12:49:00.958Z,28.8
2016-09-02T12:49:48.266Z,28.68
2016-09-02T12:51:59.478Z,28.31
2016-09-02T12:52:47.605Z,28.41
2016-09-02T12:57:01.327Z,28.63
2016-09-02T12:57:45.509Z,28.58
2016-09-02T12:58:45.842Z,28.68
2016-09-02T13:00:47.121Z,28.44
2016-09-02T13:01:46.640Z,28.62
2016-09-02T13:02:46.675Z,28.81
2016-09-02T13:04:00.511Z,28.91
2016-09-02T13:06:02.157Z,28.9
2016-09-02T13:06:45.765Z,28.9
2016-09-02T13:07:47.106Z,28.8
2016-09-02T13:09:47.935Z,28.59
2016-09-02T13:10:48.515Z,28.65
2016-09-02T13:12:03.762Z,28.54
2016-09-02T13:12:47.765Z,28.5
2016-09-02T13:14:47.363Z,28.81
2016-09-02T13:15:48.208Z,28.91
2016-09-02T13:16:47.304Z,28.97
2016-09-02T13:18:00.999Z,29.22
2016-09-02T13:18:46.480Z,29.25
2016-09-02T13:19:47.311Z,29.08
2016-09-02T13:20:47.367Z,29.43
2016-09-02T13:22:01.709Z,29.62
2016-09-02T13:24:45.634Z,30.52
2016-09-02T13:25:46.450Z,31.26
2016-09-02T13:26:45.323Z,31.54
2016-09-02T13:27:45.417Z,31.64
2016-09-02T13:29:00.935Z,31.39
2016-09-02T13:29:46.847Z,31.38
2016-09-02T13:31:02.015Z,31.12
2016-09-02T13:31:46.227Z,30.96
2016-09-02T13:32:59.844Z,31.35
2016-09-02T13:33:45.940Z,31.75
2016-09-02T13:34:48.655Z,32.32
2016-09-02T13:35:45.596Z,32.86
2016-09-02T13:36:48.620Z,33.07
2016-09-02T13:38:14.644Z,32.86
2016-09-02T13:38:47.337Z,32.89
2016-09-02T13:39:46.806Z,32.55
2016-09-02T13:40:47.831Z,32.14
2016-09-02T13:41:46.863Z,32.1
2016-09-02T13:42:47.867Z,31.76
2016-09-02T13:43:47.537Z,31.75
2016-09-02T13:44:46.975Z,31.67
2016-09-02T13:45:46.895Z,31.54
2016-09-02T13:47:02.137Z,31.38
2016-09-02T13:47:47.825Z,31.39
2016-09-02T13:48:45.545Z,31.53
2016-09-02T13:49:46.371Z,31.68
2016-09-02T13:50:46.171Z,31.92
2016-09-02T13:51:46.190Z,31.98